Terminal Aerodrome Forecast
Issued by NWS

Home | Current Version | Previous Version | Text Only | Print | Product List | Glossary On
Versions: 1 2 3 4 5 6 7 8 9 10 11 12
000
FTUS46 KMTR 290500
TAFSJC
TAF
KSJC 290538Z 2906/3006 30006KT P6SM BKN009
     FM291100 11004KT P6SM OVC007
     FM291500 VRB03KT P6SM SCT008 OVC012
     FM291600 VRB03KT P6SM SCT012
     FM292000 30012KT P6SM SKC
     FM300500 30008KT P6SM SCT012=

USA.gov is the U.S. government's official web portal to all federal, state and local government web resources and services.